Observations for LONDON GATWICK ARPT, United Kingdom (EGKK)

EGKK 240850Z VRB03KT 9999 -RA NSC 22/18 Q1015   
EGKK 240820Z 18005KT 140V220 CAVOK 22/18 Q1015  
EGKK 240750Z VRB03KT CAVOK 22/18 Q1014  
EGKK 240720Z 16006KT CAVOK 22/18 Q1014  
EGKK 240650Z VRB02KT CAVOK 20/18 Q1014  
EGKK 240620Z 09005KT CAVOK 18/17 Q1014  
EGKK 240550Z 07003KT CAVOK 18/17 Q1013  
EGKK 240520Z 09003KT 9000 NSC 17/16 Q1013   
EGKK 240450Z 07005KT 9000 NSC 17/16 Q1013   
EGKK 240420Z 08004KT 9000 NSC 16/16 Q1013   
EGKK 240350Z 09004KT 8000 NSC 16/16 Q1013   
EGKK 240320Z 08004KT 8000 NSC 16/16 Q1013   
EGKK 240250Z 08003KT 7000 NSC 17/16 Q1013   
EGKK 240220Z 06002KT 8000 NSC 16/16 Q1013   
EGKK 240150Z 06003KT 8000 NSC 17/16 Q1013   
EGKK 240120Z 06003KT 8000 NSC 16/15 Q1014   
EGKK 240050Z 07004KT 9000 NSC 16/15 Q1014   
EGKK 240020Z VRB03KT CAVOK 17/16 Q1014  
EGKK 232350Z 08003KT CAVOK 18/16 Q1014  
EGKK 232320Z 08002KT CAVOK 18/16 Q1014  
EGKK 232250Z 08004KT CAVOK 18/16 Q1014  
EGKK 232220Z 08004KT CAVOK 18/16 Q1014  
EGKK 232150Z 09004KT 9000 NSC 18/16 Q1014   
EGKK 232120Z 09007KT CAVOK 19/16 Q1014  
EGKK 232050Z 08008KT CAVOK 19/16 Q1014  
EGKK 232020Z 08008KT CAVOK 19/16 Q1014  
EGKK 231950Z 08009KT CAVOK 19/15 Q1014  
EGKK 231920Z 07008KT CAVOK 19/15 Q1014  
EGKK 231850Z 07009KT CAVOK 19/15 Q1014  
EGKK 231820Z 06008KT CAVOK 19/16 Q1014  
EGKK 231750Z 06009KT 9999 FEW043 20/15 Q1014
EGKK 231720Z 07010KT CAVOK 20/15 Q1014  
EGKK 231650Z 07009KT CAVOK 20/15 Q1014  
EGKK 231620Z 07012KT CAVOK 21/15 Q1014  
EGKK 231550Z 07011KT CAVOK 21/15 Q1015  
EGKK 231520Z 07011KT CAVOK 21/16 Q1015  
EGKK 231450Z 07010KT CAVOK 21/16 Q1015  
EGKK 231420Z 08012KT CAVOK 22/16 Q1015  
EGKK 231350Z 07014KT CAVOK 22/16 Q1015  
EGKK 231320Z 07011KT CAVOK 23/17 Q1015  
EGKK 231250Z 07012KT CAVOK 22/16 Q1015  
EGKK 231220Z 07014KT CAVOK 23/16 Q1016  
EGKK 231150Z 06010KT CAVOK 24/17 Q1016  
EGKK 231120Z 06011KT CAVOK 22/16 Q1016  
EGKK 231050Z 06009KT CAVOK 21/16 Q1017  
EGKK 231020Z 07009KT CAVOK 21/16 Q1017  
EGKK 230950Z 06009KT 030V100 CAVOK 20/15 Q1017  
EGKK 230920Z 07007KT 030V110 CAVOK 20/15 Q1017  
EGKK 230850Z 07007KT CAVOK 20/16 Q1017